Olympia Regional Airport
KOLM : now visible

Airfield :











YOU CAN JOIN US ON...

 
LOGIN :

Register | Disclaimer

   EN    FR    IT 

 









Legend :    VFR   Marginal VFR   IFR   Intensive IFR   Very Intensive IFR
Visi :
Ceiling :
>= 8 km
>= 3000ft
5 to 8 km
1000 to 3000 ft
1500m to 5 km
500 to 1000 ft
800 to 1500m
200 to 500 ft
< 800m
< 200 ft
Symbols :   Thunderstorms  Fog  Heavy snow  Heavy precipitations  Wind > 20 kt






- Airport Elevation : 209 ft
- IATA code : OLM


KOLM - Olympia Regional

CURRENT METAR :
  • 180954Z AUTO 00000KT 10SM CLR 20/15 A2991 RMK AO2 SLP127 T02000150

EXPIRED METARs :
  • 180854Z AUTO 04005KT 10SM CLR 22/15 A2991 RMK AO2 SLP126 T02170150 58002
  • 180754Z AUTO 03005KT 10SM CLR 22/15 A2991 RMK AO2 SLP126 T02170150 403220111

TAF KOLM
Valid from the 18 at 06:00 until the 19 at 06:00 UTC


180520Z 1806/1906 36004KT P6SM BKN200
FM181800 VRB04KT P6SM BKN150
FM190300 23008KT P6SM BKN120
KZSE FIR / North America



MET'MAP, your aeronautical weather chart ! - Copyright ORBIFLY December 2007 - Disclaimer

ORBIFLY MET'MAP TEAM :

Programming & Development : Alexandra Zaïnal
Original concept : Baudouin d'Aumeries
Technical & hardware support : Manuel Goepfert
Assistance : Marc-Olivier Méhu




SOURCES & CREDITS :

   NOAA       Earth
Advisory